sensor_id;sensor_type;location;lat;lon;timestamp;P1;durP1;ratioP1;P2;durP2;ratioP2
69629;SDS011;56857;52.212;5.496;2022-11-14T00:00:10;34.53;;;20.38;;
69629;SDS011;56857;52.212;5.496;2022-11-14T00:02:37;33.42;;;18.52;;
69629;SDS011;56857;52.212;5.496;2022-11-14T00:05:03;30.27;;;20.10;;
69629;SDS011;56857;52.212;5.496;2022-11-14T00:07:29;34.75;;;21.17;;
69629;SDS011;56857;52.212;5.496;2022-11-14T00:09:56;33.58;;;20.85;;
69629;SDS011;56857;52.212;5.496;2022-11-14T00:12:21;37.95;;;23.67;;
69629;SDS011;56857;52.212;5.496;2022-11-14T00:14:46;31.45;;;20.70;;
69629;SDS011;56857;52.212;5.496;2022-11-14T00:17:11;35.17;;;22.23;;
69629;SDS011;56857;52.212;5.496;2022-11-14T00:19:37;34.60;;;21.55;;
69629;SDS011;56857;52.212;5.496;2022-11-14T00:22:02;39.65;;;22.33;;
69629;SDS011;56857;52.212;5.496;2022-11-14T00:24:28;37.42;;;21.88;;
69629;SDS011;56857;52.212;5.496;2022-11-14T00:26:53;33.78;;;19.88;;
69629;SDS011;56857;52.212;5.496;2022-11-14T00:29:19;40.45;;;23.23;;
69629;SDS011;56857;52.212;5.496;2022-11-14T00:31:44;36.63;;;21.58;;
69629;SDS011;56857;52.212;5.496;2022-11-14T00:34:09;36.38;;;21.90;;
69629;SDS011;56857;52.212;5.496;2022-11-14T00:36:35;36.28;;;21.88;;
69629;SDS011;56857;52.212;5.496;2022-11-14T00:39:01;37.17;;;21.88;;
69629;SDS011;56857;52.212;5.496;2022-11-14T00:41:27;37.75;;;22.27;;
69629;SDS011;56857;52.212;5.496;2022-11-14T00:43:52;41.75;;;23.80;;
69629;SDS011;56857;52.212;5.496;2022-11-14T00:46:17;38.65;;;23.08;;
69629;SDS011;56857;52.212;5.496;2022-11-14T00:48:43;37.55;;;22.85;;
69629;SDS011;56857;52.212;5.496;2022-11-14T00:51:08;41.80;;;22.75;;
69629;SDS011;56857;52.212;5.496;2022-11-14T00:53:34;38.92;;;23.42;;
69629;SDS011;56857;52.212;5.496;2022-11-14T00:56:00;38.53;;;20.05;;
69629;SDS011;56857;52.212;5.496;2022-11-14T00:58:25;40.22;;;22.38;;
69629;SDS011;56857;52.212;5.496;2022-11-14T01:00:51;37.25;;;22.05;;
69629;SDS011;56857;52.212;5.496;2022-11-14T01:03:17;40.20;;;22.35;;
69629;SDS011;56857;52.212;5.496;2022-11-14T01:05:43;41.65;;;23.45;;
69629;SDS011;56857;52.212;5.496;2022-11-14T01:08:10;39.22;;;22.58;;
69629;SDS011;56857;52.212;5.496;2022-11-14T01:10:38;42.03;;;22.65;;
69629;SDS011;56857;52.212;5.496;2022-11-14T01:13:11;42.58;;;24.13;;
69629;SDS011;56857;52.212;5.496;2022-11-14T01:15:40;44.00;;;22.52;;
69629;SDS011;56857;52.212;5.496;2022-11-14T01:18:13;39.75;;;22.50;;
69629;SDS011;56857;52.212;5.496;2022-11-14T01:20:41;44.13;;;22.45;;
69629;SDS011;56857;52.212;5.496;2022-11-14T01:23:08;46.33;;;24.00;;
69629;SDS011;56857;52.212;5.496;2022-11-14T01:25:35;41.53;;;24.67;;
69629;SDS011;56857;52.212;5.496;2022-11-14T01:28:04;41.10;;;23.85;;
69629;SDS011;56857;52.212;5.496;2022-11-14T01:30:33;40.60;;;23.20;;
69629;SDS011;56857;52.212;5.496;2022-11-14T01:32:58;44.65;;;26.52;;
69629;SDS011;56857;52.212;5.496;2022-11-14T01:35:24;42.67;;;22.92;;
69629;SDS011;56857;52.212;5.496;2022-11-14T01:37:49;43.70;;;23.20;;
69629;SDS011;56857;52.212;5.496;2022-11-14T01:40:15;44.75;;;23.80;;
69629;SDS011;56857;52.212;5.496;2022-11-14T01:42:40;44.38;;;24.13;;
69629;SDS011;56857;52.212;5.496;2022-11-14T01:48:32;44.10;;;24.38;;
69629;SDS011;56857;52.212;5.496;2022-11-14T01:51:14;42.15;;;24.63;;
69629;SDS011;56857;52.212;5.496;2022-11-14T01:53:55;40.83;;;21.00;;
69629;SDS011;56857;52.212;5.496;2022-11-14T01:56:28;48.75;;;23.90;;
69629;SDS011;56857;52.212;5.496;2022-11-14T01:59:00;44.15;;;23.17;;
69629;SDS011;56857;52.212;5.496;2022-11-14T02:01:33;45.17;;;25.40;;
69629;SDS011;56857;52.212;5.496;2022-11-14T02:04:01;45.22;;;24.85;;
69629;SDS011;56857;52.212;5.496;2022-11-14T02:06:29;46.38;;;24.20;;
69629;SDS011;56857;52.212;5.496;2022-11-14T02:08:55;44.20;;;23.33;;
69629;SDS011;56857;52.212;5.496;2022-11-14T02:11:27;45.42;;;24.13;;
69629;SDS011;56857;52.212;5.496;2022-11-14T02:13:55;41.58;;;23.02;;
69629;SDS011;56857;52.212;5.496;2022-11-14T02:16:21;46.17;;;24.17;;
69629;SDS011;56857;52.212;5.496;2022-11-14T02:18:47;46.00;;;25.35;;
69629;SDS011;56857;52.212;5.496;2022-11-14T02:21:12;42.85;;;23.30;;
69629;SDS011;56857;52.212;5.496;2022-11-14T02:23:37;49.50;;;25.00;;
69629;SDS011;56857;52.212;5.496;2022-11-14T02:26:02;40.53;;;20.95;;
69629;SDS011;56857;52.212;5.496;2022-11-14T02:28:28;43.63;;;25.75;;
69629;SDS011;56857;52.212;5.496;2022-11-14T02:30:54;41.65;;;22.48;;
69629;SDS011;56857;52.212;5.496;2022-11-14T02:33:19;43.35;;;23.02;;
69629;SDS011;56857;52.212;5.496;2022-11-14T02:35:45;44.08;;;23.17;;
69629;SDS011;56857;52.212;5.496;2022-11-14T02:38:10;40.15;;;20.70;;
69629;SDS011;56857;52.212;5.496;2022-11-14T02:40:36;44.42;;;22.63;;
69629;SDS011;56857;52.212;5.496;2022-11-14T02:43:01;43.97;;;23.70;;
69629;SDS011;56857;52.212;5.496;2022-11-14T02:45:26;47.97;;;24.30;;
69629;SDS011;56857;52.212;5.496;2022-11-14T02:47:52;41.28;;;22.60;;
69629;SDS011;56857;52.212;5.496;2022-11-14T02:50:17;42.35;;;23.17;;
69629;SDS011;56857;52.212;5.496;2022-11-14T02:52:42;46.05;;;23.15;;
69629;SDS011;56857;52.212;5.496;2022-11-14T02:55:08;43.70;;;23.77;;
69629;SDS011;56857;52.212;5.496;2022-11-14T02:57:34;43.47;;;23.75;;
69629;SDS011;56857;52.212;5.496;2022-11-14T02:59:59;45.33;;;23.20;;
69629;SDS011;56857;52.212;5.496;2022-11-14T03:02:24;43.22;;;21.75;;
69629;SDS011;56857;52.212;5.496;2022-11-14T03:04:50;45.35;;;23.15;;
69629;SDS011;56857;52.212;5.496;2022-11-14T03:07:16;42.95;;;22.15;;
69629;SDS011;56857;52.212;5.496;2022-11-14T03:09:41;42.67;;;22.42;;
69629;SDS011;56857;52.212;5.496;2022-11-14T03:12:07;47.92;;;24.25;;
69629;SDS011;56857;52.212;5.496;2022-11-14T03:14:32;42.00;;;22.15;;
69629;SDS011;56857;52.212;5.496;2022-11-14T03:16:58;40.40;;;22.13;;
69629;SDS011;56857;52.212;5.496;2022-11-14T03:19:23;45.47;;;22.00;;
69629;SDS011;56857;52.212;5.496;2022-11-14T03:21:48;48.33;;;23.50;;
69629;SDS011;56857;52.212;5.496;2022-11-14T03:24:14;45.42;;;23.90;;
69629;SDS011;56857;52.212;5.496;2022-11-14T03:26:39;45.70;;;24.33;;
69629;SDS011;56857;52.212;5.496;2022-11-14T03:29:06;47.08;;;23.13;;
69629;SDS011;56857;52.212;5.496;2022-11-14T03:31:32;46.78;;;24.08;;
69629;SDS011;56857;52.212;5.496;2022-11-14T03:33:58;51.47;;;23.92;;
69629;SDS011;56857;52.212;5.496;2022-11-14T03:36:23;50.92;;;24.13;;
69629;SDS011;56857;52.212;5.496;2022-11-14T03:38:49;45.25;;;22.98;;
69629;SDS011;56857;52.212;5.496;2022-11-14T03:41:14;45.85;;;23.25;;
69629;SDS011;56857;52.212;5.496;2022-11-14T03:43:41;43.33;;;20.17;;
69629;SDS011;56857;52.212;5.496;2022-11-14T03:46:06;43.00;;;21.52;;
69629;SDS011;56857;52.212;5.496;2022-11-14T03:48:32;40.95;;;21.40;;
69629;SDS011;56857;52.212;5.496;2022-11-14T03:50:57;50.10;;;23.75;;
69629;SDS011;56857;52.212;5.496;2022-11-14T03:53:22;46.53;;;23.13;;
69629;SDS011;56857;52.212;5.496;2022-11-14T03:55:48;44.65;;;23.42;;
69629;SDS011;56857;52.212;5.496;2022-11-14T03:58:15;43.22;;;21.40;;
69629;SDS011;56857;52.212;5.496;2022-11-14T04:00:40;48.35;;;22.63;;
69629;SDS011;56857;52.212;5.496;2022-11-14T04:03:06;45.05;;;21.02;;
69629;SDS011;56857;52.212;5.496;2022-11-14T04:05:32;46.15;;;23.65;;
69629;SDS011;56857;52.212;5.496;2022-11-14T04:07:57;44.92;;;20.05;;
69629;SDS011;56857;52.212;5.496;2022-11-14T04:10:23;43.45;;;22.88;;
69629;SDS011;56857;52.212;5.496;2022-11-14T04:12:49;43.30;;;21.60;;
69629;SDS011;56857;52.212;5.496;2022-11-14T04:15:16;43.92;;;21.92;;
69629;SDS011;56857;52.212;5.496;2022-11-14T04:17:41;39.50;;;21.52;;
69629;SDS011;56857;52.212;5.496;2022-11-14T04:20:07;42.65;;;21.88;;
69629;SDS011;56857;52.212;5.496;2022-11-14T04:22:33;44.50;;;24.98;;
69629;SDS011;56857;52.212;5.496;2022-11-14T04:24:58;42.45;;;22.35;;
69629;SDS011;56857;52.212;5.496;2022-11-14T04:27:24;41.47;;;22.33;;
69629;SDS011;56857;52.212;5.496;2022-11-14T04:29:49;43.75;;;22.95;;
69629;SDS011;56857;52.212;5.496;2022-11-14T04:32:14;44.55;;;22.48;;
69629;SDS011;56857;52.212;5.496;2022-11-14T04:34:40;43.10;;;21.73;;
69629;SDS011;56857;52.212;5.496;2022-11-14T04:37:05;40.67;;;21.20;;
69629;SDS011;56857;52.212;5.496;2022-11-14T04:39:31;40.03;;;21.08;;
69629;SDS011;56857;52.212;5.496;2022-11-14T04:41:56;41.65;;;20.05;;
69629;SDS011;56857;52.212;5.496;2022-11-14T04:44:21;44.15;;;22.20;;
69629;SDS011;56857;52.212;5.496;2022-11-14T04:46:47;45.17;;;21.42;;
69629;SDS011;56857;52.212;5.496;2022-11-14T04:49:12;43.92;;;21.77;;
69629;SDS011;56857;52.212;5.496;2022-11-14T04:51:37;40.63;;;19.33;;
69629;SDS011;56857;52.212;5.496;2022-11-14T04:54:03;39.67;;;20.48;;
69629;SDS011;56857;52.212;5.496;2022-11-14T04:56:28;40.05;;;20.73;;
69629;SDS011;56857;52.212;5.496;2022-11-14T04:58:54;38.40;;;20.33;;
69629;SDS011;56857;52.212;5.496;2022-11-14T05:01:19;41.30;;;21.25;;
69629;SDS011;56857;52.212;5.496;2022-11-14T05:03:45;40.17;;;22.35;;
69629;SDS011;56857;52.212;5.496;2022-11-14T05:06:10;42.92;;;21.27;;
69629;SDS011;56857;52.212;5.496;2022-11-14T05:08:36;42.53;;;20.83;;
69629;SDS011;56857;52.212;5.496;2022-11-14T05:11:01;40.28;;;20.38;;
69629;SDS011;56857;52.212;5.496;2022-11-14T05:13:26;40.63;;;21.35;;
69629;SDS011;56857;52.212;5.496;2022-11-14T05:15:52;40.92;;;21.80;;
69629;SDS011;56857;52.212;5.496;2022-11-14T05:18:17;41.20;;;18.05;;
69629;SDS011;56857;52.212;5.496;2022-11-14T05:20:42;42.13;;;20.42;;
69629;SDS011;56857;52.212;5.496;2022-11-14T05:23:21;41.28;;;21.90;;
69629;SDS011;56857;52.212;5.496;2022-11-14T05:25:57;37.40;;;17.65;;
69629;SDS011;56857;52.212;5.496;2022-11-14T05:28:30;41.40;;;19.17;;
69629;SDS011;56857;52.212;5.496;2022-11-14T05:31:05;43.83;;;20.50;;
69629;SDS011;56857;52.212;5.496;2022-11-14T05:33:33;39.58;;;20.98;;
69629;SDS011;56857;52.212;5.496;2022-11-14T05:36:03;37.38;;;18.70;;
69629;SDS011;56857;52.212;5.496;2022-11-14T05:38:29;37.40;;;18.63;;
69629;SDS011;56857;52.212;5.496;2022-11-14T05:40:55;38.58;;;18.80;;
69629;SDS011;56857;52.212;5.496;2022-11-14T05:43:20;44.40;;;21.95;;
69629;SDS011;56857;52.212;5.496;2022-11-14T05:45:46;36.55;;;19.65;;
69629;SDS011;56857;52.212;5.496;2022-11-14T05:48:11;36.08;;;19.95;;
69629;SDS011;56857;52.212;5.496;2022-11-14T05:50:36;38.58;;;18.88;;
69629;SDS011;56857;52.212;5.496;2022-11-14T05:53:02;39.20;;;19.83;;
69629;SDS011;56857;52.212;5.496;2022-11-14T05:55:27;35.65;;;18.88;;
69629;SDS011;56857;52.212;5.496;2022-11-14T05:57:53;40.55;;;19.52;;
69629;SDS011;56857;52.212;5.496;2022-11-14T06:00:25;36.65;;;19.27;;
69629;SDS011;56857;52.212;5.496;2022-11-14T06:02:54;36.63;;;19.85;;
69629;SDS011;56857;52.212;5.496;2022-11-14T06:05:20;36.47;;;19.17;;
69629;SDS011;56857;52.212;5.496;2022-11-14T06:07:46;36.60;;;18.63;;
69629;SDS011;56857;52.212;5.496;2022-11-14T06:10:12;36.55;;;18.42;;
69629;SDS011;56857;52.212;5.496;2022-11-14T06:12:38;38.20;;;18.83;;
69629;SDS011;56857;52.212;5.496;2022-11-14T06:15:04;35.95;;;18.42;;
69629;SDS011;56857;52.212;5.496;2022-11-14T06:17:30;33.92;;;18.33;;
69629;SDS011;56857;52.212;5.496;2022-11-14T06:19:56;37.75;;;20.25;;
69629;SDS011;56857;52.212;5.496;2022-11-14T06:22:21;33.92;;;17.90;;
69629;SDS011;56857;52.212;5.496;2022-11-14T06:24:47;34.58;;;15.93;;
69629;SDS011;56857;52.212;5.496;2022-11-14T06:27:12;41.85;;;18.45;;
69629;SDS011;56857;52.212;5.496;2022-11-14T06:29:37;34.95;;;18.60;;
69629;SDS011;56857;52.212;5.496;2022-11-14T06:32:03;33.92;;;18.90;;
69629;SDS011;56857;52.212;5.496;2022-11-14T06:34:29;35.75;;;19.00;;
69629;SDS011;56857;52.212;5.496;2022-11-14T06:36:54;37.03;;;18.92;;
69629;SDS011;56857;52.212;5.496;2022-11-14T06:39:19;34.67;;;17.42;;
69629;SDS011;56857;52.212;5.496;2022-11-14T06:41:44;37.75;;;19.90;;
69629;SDS011;56857;52.212;5.496;2022-11-14T06:44:10;34.83;;;17.48;;
69629;SDS011;56857;52.212;5.496;2022-11-14T06:46:36;34.63;;;17.92;;
69629;SDS011;56857;52.212;5.496;2022-11-14T06:49:02;34.80;;;16.30;;
69629;SDS011;56857;52.212;5.496;2022-11-14T06:51:28;33.03;;;16.40;;
69629;SDS011;56857;52.212;5.496;2022-11-14T06:53:53;38.15;;;18.27;;
69629;SDS011;56857;52.212;5.496;2022-11-14T06:56:18;35.13;;;17.92;;
69629;SDS011;56857;52.212;5.496;2022-11-14T06:58:44;33.17;;;16.90;;
69629;SDS011;56857;52.212;5.496;2022-11-14T07:03:39;34.60;;;18.58;;
69629;SDS011;56857;52.212;5.496;2022-11-14T07:06:05;35.13;;;17.92;;
69629;SDS011;56857;52.212;5.496;2022-11-14T07:08:31;32.95;;;17.73;;
69629;SDS011;56857;52.212;5.496;2022-11-14T07:11:01;36.13;;;18.15;;
69629;SDS011;56857;52.212;5.496;2022-11-14T07:13:27;36.10;;;19.50;;
69629;SDS011;56857;52.212;5.496;2022-11-14T07:15:53;38.17;;;17.85;;
69629;SDS011;56857;52.212;5.496;2022-11-14T07:18:19;36.45;;;19.10;;
69629;SDS011;56857;52.212;5.496;2022-11-14T07:20:45;37.95;;;18.45;;
69629;SDS011;56857;52.212;5.496;2022-11-14T07:23:11;37.85;;;18.70;;
69629;SDS011;56857;52.212;5.496;2022-11-14T07:25:36;34.15;;;17.95;;
69629;SDS011;56857;52.212;5.496;2022-11-14T07:28:01;38.47;;;18.40;;
69629;SDS011;56857;52.212;5.496;2022-11-14T07:30:27;32.05;;;17.00;;
69629;SDS011;56857;52.212;5.496;2022-11-14T07:32:58;33.38;;;16.25;;
69629;SDS011;56857;52.212;5.496;2022-11-14T07:35:24;41.50;;;18.73;;
69629;SDS011;56857;52.212;5.496;2022-11-14T07:37:50;35.92;;;18.90;;
69629;SDS011;56857;52.212;5.496;2022-11-14T07:40:16;36.53;;;18.70;;
69629;SDS011;56857;52.212;5.496;2022-11-14T07:42:41;33.92;;;17.88;;
69629;SDS011;56857;52.212;5.496;2022-11-14T07:45:07;38.20;;;17.90;;
69629;SDS011;56857;52.212;5.496;2022-11-14T07:47:33;34.20;;;18.88;;
69629;SDS011;56857;52.212;5.496;2022-11-14T07:49:58;39.80;;;16.63;;
69629;SDS011;56857;52.212;5.496;2022-11-14T07:52:24;32.53;;;17.33;;
69629;SDS011;56857;52.212;5.496;2022-11-14T07:54:49;34.30;;;17.95;;
69629;SDS011;56857;52.212;5.496;2022-11-14T07:57:14;34.78;;;18.15;;
69629;SDS011;56857;52.212;5.496;2022-11-14T07:59:40;33.78;;;18.25;;
69629;SDS011;56857;52.212;5.496;2022-11-14T08:02:05;35.13;;;18.08;;
69629;SDS011;56857;52.212;5.496;2022-11-14T08:04:30;33.47;;;17.25;;
69629;SDS011;56857;52.212;5.496;2022-11-14T08:06:56;35.40;;;18.38;;
69629;SDS011;56857;52.212;5.496;2022-11-14T08:09:21;36.78;;;18.58;;
69629;SDS011;56857;52.212;5.496;2022-11-14T08:11:46;32.78;;;16.33;;
69629;SDS011;56857;52.212;5.496;2022-11-14T08:14:12;33.50;;;17.13;;
69629;SDS011;56857;52.212;5.496;2022-11-14T08:16:37;33.10;;;18.90;;
69629;SDS011;56857;52.212;5.496;2022-11-14T08:19:03;35.08;;;17.92;;
69629;SDS011;56857;52.212;5.496;2022-11-14T08:21:28;36.85;;;18.48;;
69629;SDS011;56857;52.212;5.496;2022-11-14T08:23:53;31.63;;;16.42;;
69629;SDS011;56857;52.212;5.496;2022-11-14T08:26:18;29.13;;;15.70;;
69629;SDS011;56857;52.212;5.496;2022-11-14T08:28:44;31.75;;;17.15;;
69629;SDS011;56857;52.212;5.496;2022-11-14T08:31:09;33.65;;;17.38;;
69629;SDS011;56857;52.212;5.496;2022-11-14T08:33:35;31.83;;;16.83;;
69629;SDS011;56857;52.212;5.496;2022-11-14T08:36:03;34.92;;;17.90;;
69629;SDS011;56857;52.212;5.496;2022-11-14T08:38:30;33.97;;;18.98;;
69629;SDS011;56857;52.212;5.496;2022-11-14T08:40:57;29.92;;;16.73;;
69629;SDS011;56857;52.212;5.496;2022-11-14T08:43:23;32.88;;;16.65;;
69629;SDS011;56857;52.212;5.496;2022-11-14T08:45:48;30.92;;;16.17;;
69629;SDS011;56857;52.212;5.496;2022-11-14T08:48:14;31.50;;;16.27;;
69629;SDS011;56857;52.212;5.496;2022-11-14T08:50:39;34.78;;;16.50;;
69629;SDS011;56857;52.212;5.496;2022-11-14T08:53:05;32.05;;;17.10;;
69629;SDS011;56857;52.212;5.496;2022-11-14T08:55:30;30.20;;;17.27;;
69629;SDS011;56857;52.212;5.496;2022-11-14T08:57:55;29.90;;;15.20;;
69629;SDS011;56857;52.212;5.496;2022-11-14T09:00:20;31.15;;;15.77;;
69629;SDS011;56857;52.212;5.496;2022-11-14T09:02:46;28.30;;;14.02;;
69629;SDS011;56857;52.212;5.496;2022-11-14T09:05:11;30.25;;;14.77;;
69629;SDS011;56857;52.212;5.496;2022-11-14T09:07:37;27.83;;;15.70;;
69629;SDS011;56857;52.212;5.496;2022-11-14T09:10:03;28.23;;;15.25;;
69629;SDS011;56857;52.212;5.496;2022-11-14T09:12:29;32.50;;;16.48;;
69629;SDS011;56857;52.212;5.496;2022-11-14T09:14:54;31.17;;;15.55;;
69629;SDS011;56857;52.212;5.496;2022-11-14T09:17:19;26.05;;;14.18;;
69629;SDS011;56857;52.212;5.496;2022-11-14T09:19:44;31.33;;;16.48;;
69629;SDS011;56857;52.212;5.496;2022-11-14T09:22:10;30.27;;;15.40;;
69629;SDS011;56857;52.212;5.496;2022-11-14T09:24:35;25.27;;;15.15;;
69629;SDS011;56857;52.212;5.496;2022-11-14T09:27:01;27.67;;;14.50;;
69629;SDS011;56857;52.212;5.496;2022-11-14T09:29:26;26.95;;;14.35;;
69629;SDS011;56857;52.212;5.496;2022-11-14T09:31:51;28.73;;;15.60;;
69629;SDS011;56857;52.212;5.496;2022-11-14T09:34:17;29.98;;;16.35;;
69629;SDS011;56857;52.212;5.496;2022-11-14T09:36:42;24.70;;;12.68;;
69629;SDS011;56857;52.212;5.496;2022-11-14T09:39:08;23.98;;;14.05;;
69629;SDS011;56857;52.212;5.496;2022-11-14T09:47:07;25.38;;;14.45;;
69629;SDS011;56857;52.212;5.496;2022-11-14T09:52:54;24.45;;;13.93;;
69629;SDS011;56857;52.212;5.496;2022-11-14T09:57:52;25.75;;;13.50;;
69629;SDS011;56857;52.212;5.496;2022-11-14T10:00:21;24.20;;;14.15;;
69629;SDS011;56857;52.212;5.496;2022-11-14T10:05:29;24.65;;;12.93;;
69629;SDS011;56857;52.212;5.496;2022-11-14T10:10:57;27.50;;;15.77;;
69629;SDS011;56857;52.212;5.496;2022-11-14T10:19:33;25.52;;;13.98;;
69629;SDS011;56857;52.212;5.496;2022-11-14T10:22:10;24.60;;;13.32;;
69629;SDS011;56857;52.212;5.496;2022-11-14T10:30:16;23.42;;;14.35;;
69629;SDS011;56857;52.212;5.496;2022-11-14T10:43:15;24.02;;;14.07;;
69629;SDS011;56857;52.212;5.496;2022-11-14T10:45:49;21.50;;;12.25;;
69629;SDS011;56857;52.212;5.496;2022-11-14T10:48:38;21.50;;;14.05;;
69629;SDS011;56857;52.212;5.496;2022-11-14T10:56:49;23.85;;;13.30;;
69629;SDS011;56857;52.212;5.496;2022-11-14T10:59:16;21.60;;;12.85;;
69629;SDS011;56857;52.212;5.496;2022-11-14T11:01:43;22.38;;;13.80;;
69629;SDS011;56857;52.212;5.496;2022-11-14T11:04:33;24.23;;;14.45;;
69629;SDS011;56857;52.212;5.496;2022-11-14T11:09:32;19.80;;;13.18;;
69629;SDS011;56857;52.212;5.496;2022-11-14T11:12:00;19.80;;;12.63;;
69629;SDS011;56857;52.212;5.496;2022-11-14T11:14:26;20.85;;;12.65;;
69629;SDS011;56857;52.212;5.496;2022-11-14T11:19:40;23.50;;;13.65;;
69629;SDS011;56857;52.212;5.496;2022-11-14T11:22:23;21.98;;;13.82;;
69629;SDS011;56857;52.212;5.496;2022-11-14T11:24:52;22.58;;;14.43;;
69629;SDS011;56857;52.212;5.496;2022-11-14T11:29:43;22.25;;;13.95;;
69629;SDS011;56857;52.212;5.496;2022-11-14T11:32:08;21.77;;;14.20;;
69629;SDS011;56857;52.212;5.496;2022-11-14T11:34:34;20.33;;;12.77;;
69629;SDS011;56857;52.212;5.496;2022-11-14T11:39:32;24.15;;;13.35;;
69629;SDS011;56857;52.212;5.496;2022-11-14T11:42:07;22.95;;;13.88;;
69629;SDS011;56857;52.212;5.496;2022-11-14T11:44:38;22.17;;;13.00;;
69629;SDS011;56857;52.212;5.496;2022-11-14T11:47:11;23.52;;;14.70;;
69629;SDS011;56857;52.212;5.496;2022-11-14T11:52:34;25.40;;;14.73;;
69629;SDS011;56857;52.212;5.496;2022-11-14T11:57:33;27.48;;;15.75;;
69629;SDS011;56857;52.212;5.496;2022-11-14T12:00:12;25.40;;;15.43;;
69629;SDS011;56857;52.212;5.496;2022-11-14T12:02:40;25.17;;;15.20;;
69629;SDS011;56857;52.212;5.496;2022-11-14T12:05:12;24.00;;;14.27;;
69629;SDS011;56857;52.212;5.496;2022-11-14T12:07:43;23.45;;;14.73;;
69629;SDS011;56857;52.212;5.496;2022-11-14T12:10:17;24.70;;;15.10;;
69629;SDS011;56857;52.212;5.496;2022-11-14T12:26:02;24.15;;;14.57;;
69629;SDS011;56857;52.212;5.496;2022-11-14T12:31:30;26.17;;;15.55;;
69629;SDS011;56857;52.212;5.496;2022-11-14T12:34:03;26.17;;;16.27;;
69629;SDS011;56857;52.212;5.496;2022-11-14T12:36:39;27.67;;;16.10;;
69629;SDS011;56857;52.212;5.496;2022-11-14T12:39:18;27.35;;;16.30;;
69629;SDS011;56857;52.212;5.496;2022-11-14T12:41:48;27.67;;;16.75;;
69629;SDS011;56857;52.212;5.496;2022-11-14T12:49:35;33.65;;;18.98;;
69629;SDS011;56857;52.212;5.496;2022-11-14T12:52:01;29.08;;;18.60;;
69629;SDS011;56857;52.212;5.496;2022-11-14T12:54:42;34.25;;;20.15;;
69629;SDS011;56857;52.212;5.496;2022-11-14T12:57:10;28.48;;;19.05;;
69629;SDS011;56857;52.212;5.496;2022-11-14T12:59:55;30.17;;;19.83;;
69629;SDS011;56857;52.212;5.496;2022-11-14T13:10:57;34.70;;;20.77;;
69629;SDS011;56857;52.212;5.496;2022-11-14T13:13:22;36.13;;;22.15;;
69629;SDS011;56857;52.212;5.496;2022-11-14T13:15:54;36.72;;;23.60;;
69629;SDS011;56857;52.212;5.496;2022-11-14T13:18:22;35.78;;;22.02;;
69629;SDS011;56857;52.212;5.496;2022-11-14T13:20:59;37.45;;;23.45;;
69629;SDS011;56857;52.212;5.496;2022-11-14T13:31:15;38.33;;;22.38;;
69629;SDS011;56857;52.212;5.496;2022-11-14T13:36:14;34.40;;;20.80;;
69629;SDS011;56857;52.212;5.496;2022-11-14T13:39:02;35.78;;;21.80;;
69629;SDS011;56857;52.212;5.496;2022-11-14T13:52:29;37.67;;;21.13;;
69629;SDS011;56857;52.212;5.496;2022-11-14T13:54:57;34.53;;;20.42;;
69629;SDS011;56857;52.212;5.496;2022-11-14T13:57:34;41.13;;;21.48;;
69629;SDS011;56857;52.212;5.496;2022-11-14T14:00:08;34.53;;;19.52;;
69629;SDS011;56857;52.212;5.496;2022-11-14T14:02:56;34.15;;;19.25;;
69629;SDS011;56857;52.212;5.496;2022-11-14T14:05:47;32.22;;;17.52;;
69629;SDS011;56857;52.212;5.496;2022-11-14T14:16:59;33.60;;;19.35;;
69629;SDS011;56857;52.212;5.496;2022-11-14T14:22:04;36.20;;;18.70;;
69629;SDS011;56857;52.212;5.496;2022-11-14T14:30:25;35.63;;;18.50;;
69629;SDS011;56857;52.212;5.496;2022-11-14T14:35:31;29.70;;;17.83;;
69629;SDS011;56857;52.212;5.496;2022-11-14T14:37:59;33.58;;;19.05;;
69629;SDS011;56857;52.212;5.496;2022-11-14T14:40:28;35.50;;;19.25;;
69629;SDS011;56857;52.212;5.496;2022-11-14T14:42:57;34.03;;;19.33;;
69629;SDS011;56857;52.212;5.496;2022-11-14T14:45:23;38.28;;;19.08;;
69629;SDS011;56857;52.212;5.496;2022-11-14T14:48:00;35.45;;;19.02;;
69629;SDS011;56857;52.212;5.496;2022-11-14T14:50:38;35.55;;;20.13;;
69629;SDS011;56857;52.212;5.496;2022-11-14T14:53:05;37.60;;;19.65;;
69629;SDS011;56857;52.212;5.496;2022-11-14T14:55:32;38.08;;;19.83;;
69629;SDS011;56857;52.212;5.496;2022-11-14T14:58:12;42.92;;;21.10;;
69629;SDS011;56857;52.212;5.496;2022-11-14T15:00:38;36.40;;;20.35;;
69629;SDS011;56857;52.212;5.496;2022-11-14T15:03:04;35.58;;;20.52;;
69629;SDS011;56857;52.212;5.496;2022-11-14T15:05:30;33.95;;;19.67;;
69629;SDS011;56857;52.212;5.496;2022-11-14T15:07:57;31.23;;;19.67;;
69629;SDS011;56857;52.212;5.496;2022-11-14T15:10:25;34.53;;;20.65;;
69629;SDS011;56857;52.212;5.496;2022-11-14T15:12:52;34.22;;;19.95;;
69629;SDS011;56857;52.212;5.496;2022-11-14T15:15:19;33.55;;;19.95;;
69629;SDS011;56857;52.212;5.496;2022-11-14T15:17:49;37.42;;;21.02;;
69629;SDS011;56857;52.212;5.496;2022-11-14T15:20:19;37.45;;;20.98;;
69629;SDS011;56857;52.212;5.496;2022-11-14T15:23:16;33.83;;;20.25;;
69629;SDS011;56857;52.212;5.496;2022-11-14T15:25:43;37.42;;;20.48;;
69629;SDS011;56857;52.212;5.496;2022-11-14T15:28:16;31.33;;;18.58;;
69629;SDS011;56857;52.212;5.496;2022-11-14T15:30:57;37.22;;;20.42;;
69629;SDS011;56857;52.212;5.496;2022-11-14T15:33:34;36.05;;;20.20;;
69629;SDS011;56857;52.212;5.496;2022-11-14T15:38:32;35.08;;;20.48;;
69629;SDS011;56857;52.212;5.496;2022-11-14T15:41:44;39.90;;;22.48;;
69629;SDS011;56857;52.212;5.496;2022-11-14T15:46:25;37.20;;;20.53;;
69629;SDS011;56857;52.212;5.496;2022-11-14T15:48:56;36.78;;;21.05;;
69629;SDS011;56857;52.212;5.496;2022-11-14T15:54:28;36.80;;;20.88;;
69629;SDS011;56857;52.212;5.496;2022-11-14T15:57:13;37.53;;;20.30;;
69629;SDS011;56857;52.212;5.496;2022-11-14T15:59:40;41.63;;;21.52;;
69629;SDS011;56857;52.212;5.496;2022-11-14T16:02:26;38.95;;;21.40;;
69629;SDS011;56857;52.212;5.496;2022-11-14T16:04:53;38.50;;;21.65;;
69629;SDS011;56857;52.212;5.496;2022-11-14T16:07:20;40.03;;;22.33;;
69629;SDS011;56857;52.212;5.496;2022-11-14T16:09:46;35.28;;;21.63;;
69629;SDS011;56857;52.212;5.496;2022-11-14T16:12:12;38.75;;;20.98;;
69629;SDS011;56857;52.212;5.496;2022-11-14T16:14:38;37.00;;;21.52;;
69629;SDS011;56857;52.212;5.496;2022-11-14T16:17:03;39.20;;;22.95;;
69629;SDS011;56857;52.212;5.496;2022-11-14T16:19:29;36.00;;;20.98;;
69629;SDS011;56857;52.212;5.496;2022-11-14T16:22:07;38.60;;;20.67;;
69629;SDS011;56857;52.212;5.496;2022-11-14T16:24:35;40.03;;;22.40;;
69629;SDS011;56857;52.212;5.496;2022-11-14T16:27:00;36.78;;;21.73;;
69629;SDS011;56857;52.212;5.496;2022-11-14T16:29:26;39.47;;;22.95;;
69629;SDS011;56857;52.212;5.496;2022-11-14T16:31:52;37.40;;;20.63;;
69629;SDS011;56857;52.212;5.496;2022-11-14T16:34:18;36.50;;;21.38;;
69629;SDS011;56857;52.212;5.496;2022-11-14T16:36:46;37.00;;;21.05;;
69629;SDS011;56857;52.212;5.496;2022-11-14T16:39:11;38.42;;;21.73;;
69629;SDS011;56857;52.212;5.496;2022-11-14T16:41:36;36.90;;;19.95;;
69629;SDS011;56857;52.212;5.496;2022-11-14T16:44:02;38.45;;;20.60;;
69629;SDS011;56857;52.212;5.496;2022-11-14T16:46:27;33.60;;;18.55;;
69629;SDS011;56857;52.212;5.496;2022-11-14T16:48:53;36.97;;;20.27;;